sensor_id;sensor_type;location;lat;lon;timestamp;P1;durP1;ratioP1;P2;durP2;ratioP2
73337;SDS011;61575;49.908;35.556;2023-07-09T00:00:58;11.20;;;6.30;;
73337;SDS011;61575;49.908;35.556;2023-07-09T00:04:00;12.93;;;5.82;;
73337;SDS011;61575;49.908;35.556;2023-07-09T00:07:03;10.32;;;6.22;;
73337;SDS011;61575;49.908;35.556;2023-07-09T00:10:17;10.82;;;6.05;;
73337;SDS011;61575;49.908;35.556;2023-07-09T00:13:21;10.60;;;6.03;;
73337;SDS011;61575;49.908;35.556;2023-07-09T00:16:24;11.23;;;5.75;;
73337;SDS011;61575;49.908;35.556;2023-07-09T00:19:27;8.50;;;5.40;;
73337;SDS011;61575;49.908;35.556;2023-07-09T00:22:30;10.57;;;6.68;;
73337;SDS011;61575;49.908;35.556;2023-07-09T00:25:32;10.32;;;6.30;;
73337;SDS011;61575;49.908;35.556;2023-07-09T00:28:37;9.82;;;5.95;;
73337;SDS011;61575;49.908;35.556;2023-07-09T00:31:39;9.73;;;5.78;;
73337;SDS011;61575;49.908;35.556;2023-07-09T00:34:43;10.80;;;6.22;;
73337;SDS011;61575;49.908;35.556;2023-07-09T00:37:50;10.95;;;5.88;;
73337;SDS011;61575;49.908;35.556;2023-07-09T00:44:25;10.50;;;6.38;;
73337;SDS011;61575;49.908;35.556;2023-07-09T00:50:48;11.43;;;6.00;;
73337;SDS011;61575;49.908;35.556;2023-07-09T00:53:54;9.50;;;5.72;;
73337;SDS011;61575;49.908;35.556;2023-07-09T00:57:02;10.25;;;6.18;;
73337;SDS011;61575;49.908;35.556;2023-07-09T01:00:09;10.00;;;5.65;;
73337;SDS011;61575;49.908;35.556;2023-07-09T01:06:47;9.80;;;5.65;;
73337;SDS011;61575;49.908;35.556;2023-07-09T01:09:55;11.43;;;5.40;;
73337;SDS011;61575;49.908;35.556;2023-07-09T01:12:57;10.23;;;5.95;;
73337;SDS011;61575;49.908;35.556;2023-07-09T01:15:59;9.95;;;5.97;;
73337;SDS011;61575;49.908;35.556;2023-07-09T01:19:03;9.50;;;5.65;;
73337;SDS011;61575;49.908;35.556;2023-07-09T01:22:12;10.50;;;5.88;;
73337;SDS011;61575;49.908;35.556;2023-07-09T01:25:17;8.73;;;5.03;;
73337;SDS011;61575;49.908;35.556;2023-07-09T01:28:18;10.18;;;5.68;;
73337;SDS011;61575;49.908;35.556;2023-07-09T01:31:22;9.65;;;5.57;;
73337;SDS011;61575;49.908;35.556;2023-07-09T01:34:25;10.57;;;6.20;;
73337;SDS011;61575;49.908;35.556;2023-07-09T01:37:27;8.25;;;5.32;;
73337;SDS011;61575;49.908;35.556;2023-07-09T01:40:30;8.73;;;5.07;;
73337;SDS011;61575;49.908;35.556;2023-07-09T01:43:34;9.05;;;5.15;;
73337;SDS011;61575;49.908;35.556;2023-07-09T01:46:38;8.23;;;5.05;;
73337;SDS011;61575;49.908;35.556;2023-07-09T01:49:40;7.70;;;5.07;;
73337;SDS011;61575;49.908;35.556;2023-07-09T01:52:42;9.30;;;5.20;;
73337;SDS011;61575;49.908;35.556;2023-07-09T01:55:46;8.93;;;4.80;;
73337;SDS011;61575;49.908;35.556;2023-07-09T01:58:48;8.13;;;4.82;;
73337;SDS011;61575;49.908;35.556;2023-07-09T02:01:49;8.98;;;5.13;;
73337;SDS011;61575;49.908;35.556;2023-07-09T02:04:55;9.48;;;5.00;;
73337;SDS011;61575;49.908;35.556;2023-07-09T02:07:59;8.52;;;4.90;;
73337;SDS011;61575;49.908;35.556;2023-07-09T02:11:01;9.65;;;5.05;;
73337;SDS011;61575;49.908;35.556;2023-07-09T02:14:04;7.80;;;4.72;;
73337;SDS011;61575;49.908;35.556;2023-07-09T02:17:06;9.18;;;5.35;;
73337;SDS011;61575;49.908;35.556;2023-07-09T02:20:09;7.13;;;4.40;;
73337;SDS011;61575;49.908;35.556;2023-07-09T02:23:12;8.25;;;4.72;;
73337;SDS011;61575;49.908;35.556;2023-07-09T02:26:14;8.48;;;4.88;;
73337;SDS011;61575;49.908;35.556;2023-07-09T02:29:15;7.10;;;4.40;;
73337;SDS011;61575;49.908;35.556;2023-07-09T02:32:18;7.90;;;4.50;;
73337;SDS011;61575;49.908;35.556;2023-07-09T02:35:22;8.10;;;4.63;;
73337;SDS011;61575;49.908;35.556;2023-07-09T02:38:24;7.38;;;4.57;;
73337;SDS011;61575;49.908;35.556;2023-07-09T02:41:27;8.55;;;5.10;;
73337;SDS011;61575;49.908;35.556;2023-07-09T02:44:29;7.45;;;4.80;;
73337;SDS011;61575;49.908;35.556;2023-07-09T02:47:32;8.75;;;4.97;;
73337;SDS011;61575;49.908;35.556;2023-07-09T02:50:35;8.38;;;4.72;;
73337;SDS011;61575;49.908;35.556;2023-07-09T02:53:37;9.15;;;5.10;;
73337;SDS011;61575;49.908;35.556;2023-07-09T02:56:38;8.48;;;5.00;;
73337;SDS011;61575;49.908;35.556;2023-07-09T02:59:40;9.80;;;5.63;;
73337;SDS011;61575;49.908;35.556;2023-07-09T03:02:42;8.80;;;4.90;;
73337;SDS011;61575;49.908;35.556;2023-07-09T03:05:47;8.35;;;4.88;;
73337;SDS011;61575;49.908;35.556;2023-07-09T03:08:50;9.13;;;5.43;;
73337;SDS011;61575;49.908;35.556;2023-07-09T03:11:53;9.63;;;5.75;;
73337;SDS011;61575;49.908;35.556;2023-07-09T03:14:55;8.13;;;4.97;;
73337;SDS011;61575;49.908;35.556;2023-07-09T03:17:57;9.00;;;5.40;;
73337;SDS011;61575;49.908;35.556;2023-07-09T03:20:59;8.80;;;5.35;;
73337;SDS011;61575;49.908;35.556;2023-07-09T03:24:02;8.23;;;5.20;;
73337;SDS011;61575;49.908;35.556;2023-07-09T03:27:04;9.35;;;5.38;;
73337;SDS011;61575;49.908;35.556;2023-07-09T03:33:09;9.00;;;5.10;;
73337;SDS011;61575;49.908;35.556;2023-07-09T03:36:11;10.45;;;5.90;;
73337;SDS011;61575;49.908;35.556;2023-07-09T03:39:13;8.85;;;5.45;;
73337;SDS011;61575;49.908;35.556;2023-07-09T03:42:15;8.95;;;5.63;;
73337;SDS011;61575;49.908;35.556;2023-07-09T03:45:18;10.20;;;5.50;;
73337;SDS011;61575;49.908;35.556;2023-07-09T03:48:20;9.25;;;5.45;;
73337;SDS011;61575;49.908;35.556;2023-07-09T03:51:22;9.07;;;5.45;;
73337;SDS011;61575;49.908;35.556;2023-07-09T03:54:24;9.10;;;5.22;;
73337;SDS011;61575;49.908;35.556;2023-07-09T03:57:28;10.13;;;6.05;;
73337;SDS011;61575;49.908;35.556;2023-07-09T04:00:30;8.43;;;5.30;;
73337;SDS011;61575;49.908;35.556;2023-07-09T04:03:33;10.68;;;5.85;;
73337;SDS011;61575;49.908;35.556;2023-07-09T04:06:35;8.98;;;5.60;;
73337;SDS011;61575;49.908;35.556;2023-07-09T04:09:36;10.23;;;6.30;;
73337;SDS011;61575;49.908;35.556;2023-07-09T04:12:38;9.35;;;5.88;;
73337;SDS011;61575;49.908;35.556;2023-07-09T04:15:40;8.48;;;5.38;;
73337;SDS011;61575;49.908;35.556;2023-07-09T04:18:42;10.00;;;6.22;;
73337;SDS011;61575;49.908;35.556;2023-07-09T04:21:44;8.25;;;5.25;;
73337;SDS011;61575;49.908;35.556;2023-07-09T04:24:46;9.57;;;5.40;;
73337;SDS011;61575;49.908;35.556;2023-07-09T04:27:47;9.88;;;5.55;;
73337;SDS011;61575;49.908;35.556;2023-07-09T04:30:51;9.00;;;5.75;;
73337;SDS011;61575;49.908;35.556;2023-07-09T04:33:53;10.15;;;5.93;;
73337;SDS011;61575;49.908;35.556;2023-07-09T04:36:55;10.57;;;6.22;;
73337;SDS011;61575;49.908;35.556;2023-07-09T04:39:57;10.98;;;6.68;;
73337;SDS011;61575;49.908;35.556;2023-07-09T04:42:59;9.75;;;5.88;;
73337;SDS011;61575;49.908;35.556;2023-07-09T04:46:00;11.32;;;6.22;;
73337;SDS011;61575;49.908;35.556;2023-07-09T04:49:03;9.30;;;6.32;;
73337;SDS011;61575;49.908;35.556;2023-07-09T04:52:05;11.68;;;6.55;;
73337;SDS011;61575;49.908;35.556;2023-07-09T04:55:08;9.57;;;5.90;;
73337;SDS011;61575;49.908;35.556;2023-07-09T05:01:12;9.18;;;5.55;;
73337;SDS011;61575;49.908;35.556;2023-07-09T05:04:14;10.57;;;6.15;;
73337;SDS011;61575;49.908;35.556;2023-07-09T05:07:16;9.60;;;6.15;;
73337;SDS011;61575;49.908;35.556;2023-07-09T05:10:18;9.70;;;5.47;;
73337;SDS011;61575;49.908;35.556;2023-07-09T05:13:20;8.32;;;5.22;;
73337;SDS011;61575;49.908;35.556;2023-07-09T05:16:22;7.97;;;5.07;;
73337;SDS011;61575;49.908;35.556;2023-07-09T05:19:24;9.60;;;5.85;;
73337;SDS011;61575;49.908;35.556;2023-07-09T05:22:25;9.13;;;5.55;;
73337;SDS011;61575;49.908;35.556;2023-07-09T05:25:27;8.30;;;4.70;;
73337;SDS011;61575;49.908;35.556;2023-07-09T05:28:29;9.00;;;5.05;;
73337;SDS011;61575;49.908;35.556;2023-07-09T05:31:32;9.10;;;5.03;;
73337;SDS011;61575;49.908;35.556;2023-07-09T05:34:34;7.95;;;4.78;;
73337;SDS011;61575;49.908;35.556;2023-07-09T05:37:36;8.48;;;4.95;;
73337;SDS011;61575;49.908;35.556;2023-07-09T05:40:39;7.32;;;4.60;;
73337;SDS011;61575;49.908;35.556;2023-07-09T05:43:41;7.90;;;4.32;;
73337;SDS011;61575;49.908;35.556;2023-07-09T05:46:43;8.02;;;4.82;;
73337;SDS011;61575;49.908;35.556;2023-07-09T05:49:45;8.27;;;4.65;;
73337;SDS011;61575;49.908;35.556;2023-07-09T05:52:50;8.07;;;4.75;;
73337;SDS011;61575;49.908;35.556;2023-07-09T05:55:53;6.72;;;3.90;;
73337;SDS011;61575;49.908;35.556;2023-07-09T05:58:56;6.82;;;4.03;;
73337;SDS011;61575;49.908;35.556;2023-07-09T06:01:58;7.13;;;4.25;;
73337;SDS011;61575;49.908;35.556;2023-07-09T06:05:02;7.80;;;4.68;;
73337;SDS011;61575;49.908;35.556;2023-07-09T06:08:04;8.15;;;5.03;;
73337;SDS011;61575;49.908;35.556;2023-07-09T06:11:06;7.38;;;4.43;;
73337;SDS011;61575;49.908;35.556;2023-07-09T06:14:08;7.75;;;4.50;;
73337;SDS011;61575;49.908;35.556;2023-07-09T06:20:12;6.97;;;4.13;;
73337;SDS011;61575;49.908;35.556;2023-07-09T06:23:14;7.45;;;4.22;;
73337;SDS011;61575;49.908;35.556;2023-07-09T06:26:16;7.82;;;4.88;;
73337;SDS011;61575;49.908;35.556;2023-07-09T06:29:18;8.05;;;4.63;;
73337;SDS011;61575;49.908;35.556;2023-07-09T06:32:20;7.40;;;4.55;;
73337;SDS011;61575;49.908;35.556;2023-07-09T06:35:22;8.07;;;4.75;;
73337;SDS011;61575;49.908;35.556;2023-07-09T06:38:23;7.97;;;4.90;;
73337;SDS011;61575;49.908;35.556;2023-07-09T06:41:26;7.40;;;4.40;;
73337;SDS011;61575;49.908;35.556;2023-07-09T06:44:28;8.70;;;4.75;;
73337;SDS011;61575;49.908;35.556;2023-07-09T06:47:30;8.07;;;4.85;;
73337;SDS011;61575;49.908;35.556;2023-07-09T06:50:32;7.95;;;4.70;;
73337;SDS011;61575;49.908;35.556;2023-07-09T06:53:35;6.95;;;4.35;;
73337;SDS011;61575;49.908;35.556;2023-07-09T06:56:37;7.50;;;4.32;;
73337;SDS011;61575;49.908;35.556;2023-07-09T06:59:39;7.97;;;4.53;;
73337;SDS011;61575;49.908;35.556;2023-07-09T07:02:41;8.27;;;4.68;;
73337;SDS011;61575;49.908;35.556;2023-07-09T07:05:47;7.38;;;4.18;;
73337;SDS011;61575;49.908;35.556;2023-07-09T07:08:54;7.70;;;4.60;;
73337;SDS011;61575;49.908;35.556;2023-07-09T07:11:56;8.30;;;4.97;;
73337;SDS011;61575;49.908;35.556;2023-07-09T07:14:58;8.32;;;5.00;;
73337;SDS011;61575;49.908;35.556;2023-07-09T07:18:00;8.68;;;5.20;;
73337;SDS011;61575;49.908;35.556;2023-07-09T07:21:02;8.00;;;4.68;;
73337;SDS011;61575;49.908;35.556;2023-07-09T07:24:05;8.45;;;4.85;;
73337;SDS011;61575;49.908;35.556;2023-07-09T07:27:07;9.68;;;5.63;;
73337;SDS011;61575;49.908;35.556;2023-07-09T07:30:10;7.20;;;4.57;;
73337;SDS011;61575;49.908;35.556;2023-07-09T07:33:13;8.73;;;5.38;;
73337;SDS011;61575;49.908;35.556;2023-07-09T07:36:16;7.72;;;4.90;;
73337;SDS011;61575;49.908;35.556;2023-07-09T07:39:21;8.27;;;4.70;;
73337;SDS011;61575;49.908;35.556;2023-07-09T07:42:23;7.85;;;4.60;;
73337;SDS011;61575;49.908;35.556;2023-07-09T07:45:25;8.48;;;5.00;;
73337;SDS011;61575;49.908;35.556;2023-07-09T07:48:27;8.50;;;4.72;;
73337;SDS011;61575;49.908;35.556;2023-07-09T07:51:29;7.90;;;4.70;;
73337;SDS011;61575;49.908;35.556;2023-07-09T07:54:31;8.70;;;5.20;;
73337;SDS011;61575;49.908;35.556;2023-07-09T07:57:33;8.32;;;5.10;;
73337;SDS011;61575;49.908;35.556;2023-07-09T08:00:36;9.73;;;5.25;;
73337;SDS011;61575;49.908;35.556;2023-07-09T08:03:41;8.82;;;4.68;;
73337;SDS011;61575;49.908;35.556;2023-07-09T08:06:43;8.38;;;4.82;;
73337;SDS011;61575;49.908;35.556;2023-07-09T08:09:45;9.55;;;5.45;;
73337;SDS011;61575;49.908;35.556;2023-07-09T08:12:48;7.57;;;4.78;;
73337;SDS011;61575;49.908;35.556;2023-07-09T08:15:50;8.82;;;5.25;;
73337;SDS011;61575;49.908;35.556;2023-07-09T08:18:52;10.23;;;5.43;;
73337;SDS011;61575;49.908;35.556;2023-07-09T08:21:54;9.75;;;5.47;;
73337;SDS011;61575;49.908;35.556;2023-07-09T08:24:56;9.40;;;5.72;;
73337;SDS011;61575;49.908;35.556;2023-07-09T08:27:58;8.93;;;4.97;;
73337;SDS011;61575;49.908;35.556;2023-07-09T08:31:00;9.85;;;5.10;;
73337;SDS011;61575;49.908;35.556;2023-07-09T08:34:05;8.43;;;5.00;;
73337;SDS011;61575;49.908;35.556;2023-07-09T08:37:08;8.85;;;5.38;;
73337;SDS011;61575;49.908;35.556;2023-07-09T08:40:12;8.40;;;5.05;;
73337;SDS011;61575;49.908;35.556;2023-07-09T08:47:05;10.55;;;5.65;;
73337;SDS011;61575;49.908;35.556;2023-07-09T08:50:18;8.32;;;5.15;;
73337;SDS011;61575;49.908;35.556;2023-07-09T08:54:07;9.05;;;5.05;;
73337;SDS011;61575;49.908;35.556;2023-07-09T08:56:52;6.85;;;4.07;;
73337;SDS011;61575;49.908;35.556;2023-07-09T09:03:35;6.82;;;4.25;;
73337;SDS011;61575;49.908;35.556;2023-07-09T09:06:40;6.07;;;3.60;;
73337;SDS011;61575;49.908;35.556;2023-07-09T09:09:57;7.78;;;4.00;;
73337;SDS011;61575;49.908;35.556;2023-07-09T09:13:10;7.38;;;4.03;;
73337;SDS011;61575;49.908;35.556;2023-07-09T09:16:17;6.93;;;4.18;;
73337;SDS011;61575;49.908;35.556;2023-07-09T09:19:39;6.32;;;3.83;;
73337;SDS011;61575;49.908;35.556;2023-07-09T09:26:18;7.45;;;4.22;;
73337;SDS011;61575;49.908;35.556;2023-07-09T09:29:25;6.88;;;3.60;;
73337;SDS011;61575;49.908;35.556;2023-07-09T09:32:29;6.57;;;3.60;;
73337;SDS011;61575;49.908;35.556;2023-07-09T09:35:38;5.80;;;3.10;;
73337;SDS011;61575;49.908;35.556;2023-07-09T09:38:42;5.72;;;3.25;;
73337;SDS011;61575;49.908;35.556;2023-07-09T09:41:45;5.53;;;3.42;;
73337;SDS011;61575;49.908;35.556;2023-07-09T09:44:48;5.72;;;3.35;;
73337;SDS011;61575;49.908;35.556;2023-07-09T09:47:49;5.22;;;2.75;;
73337;SDS011;61575;49.908;35.556;2023-07-09T09:50:51;6.80;;;3.35;;
73337;SDS011;61575;49.908;35.556;2023-07-09T09:53:58;6.72;;;3.33;;
73337;SDS011;61575;49.908;35.556;2023-07-09T09:57:01;5.65;;;3.53;;
73337;SDS011;61575;49.908;35.556;2023-07-09T10:00:03;6.60;;;3.35;;
73337;SDS011;61575;49.908;35.556;2023-07-09T10:03:09;6.03;;;3.40;;
73337;SDS011;61575;49.908;35.556;2023-07-09T10:12:35;7.10;;;3.72;;
73337;SDS011;61575;49.908;35.556;2023-07-09T10:19:12;5.25;;;3.20;;
73337;SDS011;61575;49.908;35.556;2023-07-09T10:28:55;5.18;;;2.88;;
73337;SDS011;61575;49.908;35.556;2023-07-09T10:35:40;6.07;;;3.30;;
73337;SDS011;61575;49.908;35.556;2023-07-09T10:39:00;6.43;;;3.40;;
73337;SDS011;61575;49.908;35.556;2023-07-09T10:42:11;6.55;;;3.58;;
73337;SDS011;61575;49.908;35.556;2023-07-09T10:45:22;6.57;;;3.20;;
73337;SDS011;61575;49.908;35.556;2023-07-09T10:48:34;4.78;;;2.63;;
73337;SDS011;61575;49.908;35.556;2023-07-09T10:51:39;4.97;;;2.80;;
73337;SDS011;61575;49.908;35.556;2023-07-09T10:55:32;6.55;;;3.20;;
73337;SDS011;61575;49.908;35.556;2023-07-09T11:01:34;6.65;;;2.90;;
73337;SDS011;61575;49.908;35.556;2023-07-09T11:04:52;5.00;;;2.90;;
73337;SDS011;61575;49.908;35.556;2023-07-09T11:08:04;5.30;;;2.80;;
73337;SDS011;61575;49.908;35.556;2023-07-09T11:11:14;5.95;;;3.15;;
73337;SDS011;61575;49.908;35.556;2023-07-09T11:14:26;5.80;;;2.50;;
73337;SDS011;61575;49.908;35.556;2023-07-09T11:17:31;5.63;;;2.85;;
73337;SDS011;61575;49.908;35.556;2023-07-09T11:20:36;5.18;;;2.40;;
73337;SDS011;61575;49.908;35.556;2023-07-09T11:23:44;5.60;;;2.97;;
73337;SDS011;61575;49.908;35.556;2023-07-09T11:26:52;7.25;;;3.10;;
73337;SDS011;61575;49.908;35.556;2023-07-09T11:30:02;5.72;;;2.95;;
73337;SDS011;61575;49.908;35.556;2023-07-09T11:33:29;4.85;;;2.55;;
73337;SDS011;61575;49.908;35.556;2023-07-09T11:36:31;5.90;;;3.17;;
73337;SDS011;61575;49.908;35.556;2023-07-09T11:42:48;4.88;;;2.70;;
73337;SDS011;61575;49.908;35.556;2023-07-09T11:45:52;4.97;;;2.60;;
73337;SDS011;61575;49.908;35.556;2023-07-09T11:48:57;5.65;;;3.13;;
73337;SDS011;61575;49.908;35.556;2023-07-09T11:52:02;4.78;;;2.75;;
73337;SDS011;61575;49.908;35.556;2023-07-09T12:01:50;4.20;;;2.00;;
73337;SDS011;61575;49.908;35.556;2023-07-09T12:04:55;4.93;;;2.55;;
73337;SDS011;61575;49.908;35.556;2023-07-09T12:07:58;3.95;;;2.17;;
73337;SDS011;61575;49.908;35.556;2023-07-09T12:11:02;4.40;;;2.53;;
73337;SDS011;61575;49.908;35.556;2023-07-09T12:14:08;4.50;;;2.50;;
73337;SDS011;61575;49.908;35.556;2023-07-09T12:17:12;5.30;;;2.55;;
73337;SDS011;61575;49.908;35.556;2023-07-09T12:20:14;4.35;;;2.13;;
73337;SDS011;61575;49.908;35.556;2023-07-09T12:26:31;3.75;;;1.95;;
73337;SDS011;61575;49.908;35.556;2023-07-09T12:29:35;4.90;;;2.38;;
73337;SDS011;61575;49.908;35.556;2023-07-09T12:32:44;3.97;;;2.25;;
73337;SDS011;61575;49.908;35.556;2023-07-09T12:35:48;4.50;;;1.92;;
73337;SDS011;61575;49.908;35.556;2023-07-09T12:39:00;4.10;;;1.88;;
73337;SDS011;61575;49.908;35.556;2023-07-09T12:42:04;5.03;;;2.50;;
73337;SDS011;61575;49.908;35.556;2023-07-09T12:45:09;4.05;;;1.95;;
73337;SDS011;61575;49.908;35.556;2023-07-09T12:48:16;4.53;;;2.30;;
73337;SDS011;61575;49.908;35.556;2023-07-09T12:51:28;5.70;;;2.35;;
73337;SDS011;61575;49.908;35.556;2023-07-09T12:54:31;4.18;;;2.03;;
73337;SDS011;61575;49.908;35.556;2023-07-09T12:57:33;3.95;;;1.95;;
73337;SDS011;61575;49.908;35.556;2023-07-09T13:00:39;5.75;;;1.90;;
73337;SDS011;61575;49.908;35.556;2023-07-09T13:03:41;4.28;;;1.85;;
73337;SDS011;61575;49.908;35.556;2023-07-09T13:06:43;4.18;;;2.00;;
73337;SDS011;61575;49.908;35.556;2023-07-09T13:09:50;3.47;;;1.60;;
73337;SDS011;61575;49.908;35.556;2023-07-09T13:13:03;3.65;;;1.88;;
73337;SDS011;61575;49.908;35.556;2023-07-09T13:16:06;3.33;;;1.65;;
73337;SDS011;61575;49.908;35.556;2023-07-09T13:19:09;3.92;;;1.77;;
73337;SDS011;61575;49.908;35.556;2023-07-09T13:22:12;3.28;;;1.70;;
73337;SDS011;61575;49.908;35.556;2023-07-09T13:25:16;4.75;;;1.70;;
73337;SDS011;61575;49.908;35.556;2023-07-09T13:28:30;5.22;;;2.10;;
73337;SDS011;61575;49.908;35.556;2023-07-09T13:31:33;4.22;;;1.80;;
73337;SDS011;61575;49.908;35.556;2023-07-09T13:34:35;4.28;;;2.22;;
73337;SDS011;61575;49.908;35.556;2023-07-09T13:37:37;3.33;;;1.83;;
73337;SDS011;61575;49.908;35.556;2023-07-09T13:40:39;3.67;;;1.52;;
73337;SDS011;61575;49.908;35.556;2023-07-09T13:43:42;3.63;;;1.85;;
73337;SDS011;61575;49.908;35.556;2023-07-09T13:46:46;3.40;;;1.60;;
73337;SDS011;61575;49.908;35.556;2023-07-09T13:49:48;3.85;;;1.80;;
73337;SDS011;61575;49.908;35.556;2023-07-09T13:52:50;3.75;;;1.63;;
73337;SDS011;61575;49.908;35.556;2023-07-09T13:55:53;3.13;;;1.58;;
73337;SDS011;61575;49.908;35.556;2023-07-09T13:58:55;3.35;;;1.60;;
73337;SDS011;61575;49.908;35.556;2023-07-09T14:01:58;3.40;;;1.70;;
73337;SDS011;61575;49.908;35.556;2023-07-09T14:05:02;4.38;;;2.20;;
73337;SDS011;61575;49.908;35.556;2023-07-09T14:08:07;4.13;;;1.80;;
73337;SDS011;61575;49.908;35.556;2023-07-09T14:11:10;3.85;;;1.63;;
73337;SDS011;61575;49.908;35.556;2023-07-09T14:17:21;3.40;;;1.88;;
73337;SDS011;61575;49.908;35.556;2023-07-09T14:20:24;4.22;;;1.88;;
73337;SDS011;61575;49.908;35.556;2023-07-09T14:26:28;3.53;;;1.73;;
73337;SDS011;61575;49.908;35.556;2023-07-09T14:29:30;3.38;;;1.52;;
73337;SDS011;61575;49.908;35.556;2023-07-09T14:32:35;3.35;;;1.55;;
73337;SDS011;61575;49.908;35.556;2023-07-09T14:35:40;3.58;;;1.52;;
73337;SDS011;61575;49.908;35.556;2023-07-09T14:38:42;3.60;;;1.70;;
73337;SDS011;61575;49.908;35.556;2023-07-09T14:41:44;3.72;;;1.70;;
73337;SDS011;61575;49.908;35.556;2023-07-09T14:44:46;3.20;;;1.50;;
73337;SDS011;61575;49.908;35.556;2023-07-09T14:47:48;2.72;;;1.50;;
73337;SDS011;61575;49.908;35.556;2023-07-09T14:50:51;2.63;;;1.40;;
73337;SDS011;61575;49.908;35.556;2023-07-09T14:53:53;3.75;;;1.50;;
73337;SDS011;61575;49.908;35.556;2023-07-09T14:59:58;3.70;;;1.65;;
73337;SDS011;61575;49.908;35.556;2023-07-09T15:03:00;2.67;;;1.10;;
73337;SDS011;61575;49.908;35.556;2023-07-09T15:06:02;5.45;;;1.55;;
73337;SDS011;61575;49.908;35.556;2023-07-09T15:09:04;3.17;;;1.52;;
73337;SDS011;61575;49.908;35.556;2023-07-09T15:12:09;3.15;;;1.40;;
73337;SDS011;61575;49.908;35.556;2023-07-09T15:15:26;3.78;;;1.60;;
73337;SDS011;61575;49.908;35.556;2023-07-09T15:18:30;3.60;;;1.70;;
73337;SDS011;61575;49.908;35.556;2023-07-09T15:21:35;2.92;;;1.60;;
73337;SDS011;61575;49.908;35.556;2023-07-09T15:24:36;3.55;;;1.70;;
73337;SDS011;61575;49.908;35.556;2023-07-09T15:27:39;3.88;;;1.73;;
73337;SDS011;61575;49.908;35.556;2023-07-09T15:30:41;3.38;;;1.50;;
73337;SDS011;61575;49.908;35.556;2023-07-09T15:33:44;4.15;;;1.85;;
73337;SDS011;61575;49.908;35.556;2023-07-09T15:36:47;4.70;;;1.95;;
73337;SDS011;61575;49.908;35.556;2023-07-09T15:39:50;3.95;;;1.48;;
73337;SDS011;61575;49.908;35.556;2023-07-09T15:42:53;5.00;;;1.98;;
73337;SDS011;61575;49.908;35.556;2023-07-09T15:45:57;4.88;;;1.90;;
73337;SDS011;61575;49.908;35.556;2023-07-09T15:49:00;5.55;;;1.60;;
73337;SDS011;61575;49.908;35.556;2023-07-09T15:52:02;3.97;;;1.77;;
73337;SDS011;61575;49.908;35.556;2023-07-09T15:55:07;5.45;;;2.00;;
73337;SDS011;61575;49.908;35.556;2023-07-09T15:58:16;5.35;;;1.73;;
73337;SDS011;61575;49.908;35.556;2023-07-09T16:01:23;4.38;;;1.40;;
73337;SDS011;61575;49.908;35.556;2023-07-09T16:04:27;3.05;;;1.48;;
73337;SDS011;61575;49.908;35.556;2023-07-09T16:07:29;3.95;;;1.60;;
73337;SDS011;61575;49.908;35.556;2023-07-09T16:10:31;3.50;;;1.70;;
73337;SDS011;61575;49.908;35.556;2023-07-09T16:13:33;2.85;;;1.42;;
73337;SDS011;61575;49.908;35.556;2023-07-09T16:16:35;2.50;;;1.33;;
73337;SDS011;61575;49.908;35.556;2023-07-09T16:19:37;3.47;;;1.65;;
73337;SDS011;61575;49.908;35.556;2023-07-09T16:22:41;3.75;;;1.67;;
73337;SDS011;61575;49.908;35.556;2023-07-09T16:25:44;3.92;;;1.88;;
73337;SDS011;61575;49.908;35.556;2023-07-09T16:28:47;3.13;;;1.58;;
73337;SDS011;61575;49.908;35.556;2023-07-09T16:34:56;3.40;;;1.80;;
73337;SDS011;61575;49.908;35.556;2023-07-09T16:37:58;3.25;;;1.55;;
73337;SDS011;61575;49.908;35.556;2023-07-09T16:41:00;3.45;;;1.60;;
73337;SDS011;61575;49.908;35.556;2023-07-09T16:44:07;3.20;;;1.50;;
73337;SDS011;61575;49.908;35.556;2023-07-09T16:47:15;4.28;;;1.60;;
73337;SDS011;61575;49.908;35.556;2023-07-09T16:50:21;3.75;;;1.60;;
73337;SDS011;61575;49.908;35.556;2023-07-09T16:53:24;2.90;;;1.60;;
73337;SDS011;61575;49.908;35.556;2023-07-09T16:56:27;4.28;;;1.60;;
73337;SDS011;61575;49.908;35.556;2023-07-09T16:59:28;3.15;;;1.50;;
73337;SDS011;61575;49.908;35.556;2023-07-09T17:02:31;3.83;;;1.73;;
73337;SDS011;61575;49.908;35.556;2023-07-09T17:05:34;3.80;;;1.60;;
73337;SDS011;61575;49.908;35.556;2023-07-09T17:08:37;2.75;;;1.30;;
73337;SDS011;61575;49.908;35.556;2023-07-09T17:11:38;3.90;;;1.67;;
73337;SDS011;61575;49.908;35.556;2023-07-09T17:14:40;3.63;;;1.70;;
73337;SDS011;61575;49.908;35.556;2023-07-09T17:17:42;3.85;;;1.90;;
73337;SDS011;61575;49.908;35.556;2023-07-09T17:20:44;3.63;;;1.60;;
73337;SDS011;61575;49.908;35.556;2023-07-09T17:23:48;2.97;;;1.55;;
73337;SDS011;61575;49.908;35.556;2023-07-09T17:26:50;4.40;;;1.67;;
73337;SDS011;61575;49.908;35.556;2023-07-09T17:29:53;3.47;;;1.80;;
73337;SDS011;61575;49.908;35.556;2023-07-09T17:32:55;3.80;;;1.83;;
73337;SDS011;61575;49.908;35.556;2023-07-09T17:38:59;4.80;;;2.20;;
73337;SDS011;61575;49.908;35.556;2023-07-09T17:42:01;3.72;;;1.90;;
73337;SDS011;61575;49.908;35.556;2023-07-09T17:45:05;3.40;;;1.63;;
73337;SDS011;61575;49.908;35.556;2023-07-09T17:48:15;3.70;;;1.70;;
73337;SDS011;61575;49.908;35.556;2023-07-09T17:51:19;3.47;;;1.65;;
73337;SDS011;61575;49.908;35.556;2023-07-09T17:54:21;4.63;;;1.63;;
73337;SDS011;61575;49.908;35.556;2023-07-09T17:57:25;3.58;;;1.83;;
73337;SDS011;61575;49.908;35.556;2023-07-09T18:00:27;3.40;;;1.80;;
73337;SDS011;61575;49.908;35.556;2023-07-09T18:03:29;3.30;;;1.50;;
73337;SDS011;61575;49.908;35.556;2023-07-09T18:06:32;4.13;;;1.90;;
73337;SDS011;61575;49.908;35.556;2023-07-09T18:09:34;3.38;;;1.73;;
73337;SDS011;61575;49.908;35.556;2023-07-09T18:12:35;3.60;;;1.67;;
73337;SDS011;61575;49.908;35.556;2023-07-09T18:15:37;3.60;;;1.80;;
73337;SDS011;61575;49.908;35.556;2023-07-09T18:21:41;3.45;;;1.70;;
73337;SDS011;61575;49.908;35.556;2023-07-09T18:24:43;3.70;;;1.67;;
73337;SDS011;61575;49.908;35.556;2023-07-09T18:27:48;3.45;;;1.85;;
73337;SDS011;61575;49.908;35.556;2023-07-09T18:30:51;3.95;;;1.70;;
73337;SDS011;61575;49.908;35.556;2023-07-09T18:34:13;3.45;;;1.80;;
73337;SDS011;61575;49.908;35.556;2023-07-09T18:37:15;3.38;;;1.77;;
73337;SDS011;61575;49.908;35.556;2023-07-09T18:40:18;3.67;;;1.80;;
73337;SDS011;61575;49.908;35.556;2023-07-09T18:43:21;3.40;;;1.80;;
73337;SDS011;61575;49.908;35.556;2023-07-09T18:46:33;4.03;;;2.30;;
73337;SDS011;61575;49.908;35.556;2023-07-09T18:49:35;3.70;;;1.90;;
73337;SDS011;61575;49.908;35.556;2023-07-09T18:52:37;4.53;;;2.30;;
73337;SDS011;61575;49.908;35.556;2023-07-09T18:55:39;5.15;;;2.30;;
73337;SDS011;61575;49.908;35.556;2023-07-09T19:01:43;3.67;;;2.20;;
73337;SDS011;61575;49.908;35.556;2023-07-09T19:04:46;4.35;;;2.10;;
73337;SDS011;61575;49.908;35.556;2023-07-09T19:07:49;4.00;;;2.15;;
73337;SDS011;61575;49.908;35.556;2023-07-09T19:10:52;3.95;;;2.00;;
73337;SDS011;61575;49.908;35.556;2023-07-09T19:13:55;4.30;;;1.92;;
73337;SDS011;61575;49.908;35.556;2023-07-09T19:16:57;3.92;;;2.08;;
73337;SDS011;61575;49.908;35.556;2023-07-09T19:20:04;4.13;;;1.92;;
73337;SDS011;61575;49.908;35.556;2023-07-09T19:23:19;3.75;;;1.80;;
73337;SDS011;61575;49.908;35.556;2023-07-09T19:26:24;3.08;;;1.63;;
73337;SDS011;61575;49.908;35.556;2023-07-09T19:29:26;3.05;;;1.70;;
73337;SDS011;61575;49.908;35.556;2023-07-09T19:35:31;3.10;;;1.60;;
73337;SDS011;61575;49.908;35.556;2023-07-09T19:38:32;5.18;;;1.80;;
73337;SDS011;61575;49.908;35.556;2023-07-09T19:41:34;3.20;;;1.63;;